• Join FlightAware (Why Join?)
  • Login
  • US Flag 
03:41AM EST


 

Airport Tracker/Info


-or-


 

Live Flight TrackerFlight Track Log ✈ JZA8790 ✈ 01-Jun-2012 ✈ CYOW - CYUL

Flight Track Log - Related Links

Times and Time Zones

All times are in EDT time to prevent confusion due to time zone crossing. See the JZA8790 flight status page for this flight to view local times or setup timezone preferences in your user account.

Time Position Orientation Groundspeed Altitude Reporting Facility
EDT Latitude Longitude Course Direction KTS MPH feet Rate Location/Type
02:00PM 45.3000 -75.6333 104° East 110 127 1,800  Level Montreal Center
02:05PM 45.2500 -75.3500 115° Southeast 170 196 6,000 840 Climbing Montreal Center
02:06PM 45.2333 -75.3000 110° East 160 184 7,000 900 Climbing Montreal Center
02:07PM 45.2167 -75.2333 110° East 170 196 7,800 1,020 Climbing Montreal Center
02:08PM 45.2000 -75.1667 115° Southeast 170 196 9,100 1,080 Climbing Montreal Center
02:09PM 45.1833 -75.1167 125° Southeast 160 184 10,000 900 Climbing Montreal Center
02:10PM 45.1500 -75.0500 90° East 170 196 10,900 720 Climbing Montreal Center
02:11PM 45.1500 -74.9667 74° East 190 219 11,500 720 Climbing Montreal Center
02:12PM 45.1667 -74.8833 90° East 200 230 12,400 720 Climbing Montreal Center
02:13PM 45.1667 -74.8000 74° East 210 242 13,000 -60 Climbing Montreal Center
02:14PM 45.1833 -74.7167 90° East 240 276 12,300 -1,020 Descending Montreal Center
02:15PM 45.1833 -74.5833 74° East 280 322 11,000 -1,260 Descending Montreal Center
02:16PM 45.2000 -74.5000 70° East 280 322 9,800 -1,200 Descending Montreal Center
02:17PM 45.2333 -74.3667 43° Northeast 270 311 8,600 -1,140 Descending Montreal Center
02:18PM 45.2833 -74.3000 43° Northeast 280 322 7,600 -1,080 Descending Montreal Center
02:19PM 45.3333 -74.2333 49° Northeast 270 311 6,500 -1,020 Descending Montreal Center
02:20PM 45.3833 -74.1500 43° Northeast 250 288 5,600 -900 Descending Montreal Center
02:21PM 45.4333 -74.0833 90° East 240 276 4,700 -1,020 Descending Montreal Center
02:22PM 45.4333 -74.0167 90° East 230 265 3,600 -1,140 Descending Montreal Center
02:23PM 45.4333 -73.9333 74° East 210 242 2,500 -1,140 Descending Montreal Center
02:24PM 45.4500 -73.8500 90° East 180 207 1,400 -900 Descending Montreal Center
02:25PM 45.4500 -73.8000 90° East 150 173 700 -720 Descending Montreal Center